Jacky L O'neal — WDG3892 — position and weather

sailwx.info

Track history (hours):
 
Tides and Currents Weather Stations Pressure Air Temp Water Temp Dewpoint Dewpoint Depression Visibility Wind Speed Wind Dir Waves Ship Positions

Jacky L O'neal

Owner: American Commercial Lines LLC, Jeffersonville, IN. More information available from US FCC via Universal Licensing System and Coast Guard Vessel Documentation Center.

Last reported at 2016-Aug-27 18:31 UTC. Time now 2016-Aug-30 15:01 UTC.
Position N 32°40' W 091°07'.

Length 55 m; draft 2.9 m.

Type: Tow > 200 m length. MMSI: 367530760.

Date/timePositionNaut miles runAvg speedWind from/ knotsBaromVisibWave heightAir tempDewpointWater temp
2016-Aug-27 18:31N 32°40' W 091°07'4 4.3
2016-Aug-27 17:33N 32°36' W 091°08'5 5.0
2016-Aug-27 16:33N 32°32' W 091°06'5 4.8
2016-Aug-27 15:33N 32°27' W 091°05'5 5.2
2016-Aug-27 14:33N 32°24' W 090°59'4 3.5
2016-Aug-27 13:33N 32°21' W 090°58'4 3.7
2016-Aug-27 12:33N 32°18' W 090°55'5 5.3
2016-Aug-27 11:33N 32°14' W 090°59'5 5.3
2016-Aug-27 10:33N 32°09' W 091°00'5 4.4
2016-Aug-27 09:30N 32°08' W 091°06'3 1.5
2016-Aug-27 07:19N 32°05' W 091°04'14 4.8
2016-Aug-27 04:27N 31°53' W 091°13'6 5.1
2016-Aug-27 03:18N 31°52' W 091°19'4 3.7
2016-Aug-27 02:21N 31°48' W 091°21'1 0.9
2016-Aug-27 01:33N 31°48' W 091°21'5 5.5
2016-Aug-27 00:33N 31°43' W 091°24'  
2016-Aug-22 06:27N 31°01' W 091°35'60 5.5
2016-Aug-21 19:33N 31°58' W 091°11'7 7.0
2016-Aug-21 18:33N 32°02' W 091°04'6 6.2
2016-Aug-21 17:33N 32°08' W 091°06'5 5.1
2016-Aug-21 16:33N 32°08' W 091°00'6 6.1
2016-Aug-21 15:33N 32°14' W 090°59'7 7.2
2016-Aug-21 14:33N 32°20' W 090°54'6 6.0
2016-Aug-21 13:33N 32°24' W 090°59'8 7.9
2016-Aug-21 12:33N 32°29' W 091°07'7 7.4
2016-Aug-21 11:33N 32°36' W 091°09'  
Track history (hours):
 
Tides and Currents Weather Stations Pressure Air Temp Water Temp Dewpoint Dewpoint Depression Visibility Wind Speed Wind Dir Waves Ship Positions

Jacky L O'neal

Owner: American Commercial Lines LLC, Jeffersonville, IN. More information available from US FCC via Universal Licensing System and Coast Guard Vessel Documentation Center.

Last reported at 2016-Aug-27 18:31 UTC. Time now 2016-Aug-30 15:01 UTC.
Position N 32°40' W 091°07'.

Length 55 m; draft 2.9 m.

Type: Tow > 200 m length. MMSI: 367530760.

Date/timePositionNaut miles runAvg speedWind from/ knotsBaromVisibWave heightAir tempDewpointWater temp
2016-Aug-27 18:31N 32°40' W 091°07'4 4.3
2016-Aug-27 17:33N 32°36' W 091°08'5 5.0
2016-Aug-27 16:33N 32°32' W 091°06'5 4.8
2016-Aug-27 15:33N 32°27' W 091°05'5 5.2
2016-Aug-27 14:33N 32°24' W 090°59'4 3.5
2016-Aug-27 13:33N 32°21' W 090°58'4 3.7
2016-Aug-27 12:33N 32°18' W 090°55'5 5.3
2016-Aug-27 11:33N 32°14' W 090°59'5 5.3
2016-Aug-27 10:33N 32°09' W 091°00'5 4.4
2016-Aug-27 09:30N 32°08' W 091°06'3 1.5
2016-Aug-27 07:19N 32°05' W 091°04'14 4.8
2016-Aug-27 04:27N 31°53' W 091°13'6 5.1
2016-Aug-27 03:18N 31°52' W 091°19'4 3.7
2016-Aug-27 02:21N 31°48' W 091°21'1 0.9
2016-Aug-27 01:33N 31°48' W 091°21'5 5.5
2016-Aug-27 00:33N 31°43' W 091°24'  
2016-Aug-22 06:27N 31°01' W 091°35'60 5.5
2016-Aug-21 19:33N 31°58' W 091°11'7 7.0
2016-Aug-21 18:33N 32°02' W 091°04'6 6.2
2016-Aug-21 17:33N 32°08' W 091°06'5 5.1
2016-Aug-21 16:33N 32°08' W 091°00'6 6.1
2016-Aug-21 15:33N 32°14' W 090°59'7 7.2
2016-Aug-21 14:33N 32°20' W 090°54'6 6.0
2016-Aug-21 13:33N 32°24' W 090°59'8 7.9
2016-Aug-21 12:33N 32°29' W 091°07'7 7.4
2016-Aug-21 11:33N 32°36' W 091°09'  

Dump ship's entire track history